Stacja Pogody
Warszawa Praga-Północ

Szerokość 52°15'43"N Długość 21°01'22"E Wysokość 110m n.p.m.


18 dzień roku.   Do końca pozostalo 347 dni.   Od wczoraj przybyło 3 min. i 22 sek. dnia.
Wschód Słońca 07:35 Górowanie Słońca 11:46 Zachód Słońca 15:56 koziorozec
Data juliańska 2458137.093 Odległość Słońca 147186240 km Średn. kątowa Słońca 0,325°
Wschód Księżyca 08:14 Zachód Księżyca 17:29 Wiek Księżyca 1 dni Moon
Widoczność Księżyca 1,97% Odległość Księżyca 401079 km Średn. kątowa Księżyca 0,298°
Dzień krótszy od najdłuższego o: 08:26 Długość dnia 08:20 Imieniny Piotra, Małgorzaty



  Aktualizacja: 18-01-2018 14:13:47
TEMPERATURA
Aktualnie: 2.9°C →
Temperatura odczuwalna:-3.2°C
Punkt rosy-2.4°C
WIATR
Średnia prędkość: 19.4km/h ↑
Prędkość w podmuchach:23.4km/h
Przepływ w ciągu doby:226.1km
Kierunek wiatru:135°
CIŚNIENIE
Względne:999.9hPa
Trend ciśnienia:powolny spadek
WILGOTNOŚĆ
Wilgotność względna: 69% ↑
Podstawa chmur2543m
DESZCZ
W ostatniej godzinie: 0.0mm
Dzisiaj:0.0mm
W tym miesiącu:8.4mm
METAR
EPWA 181300Z 19008KT 9999 SCT017 03/M01 Q1000 NOSIG
Ostrzeżenia burzowe
Prognoza 12-to godzinna (prawdopodobieństwo 75%):   Okresowo opady, bardzo niestabilna pogoda prognoza





a  a a